sensor_id;sensor_type;location;lat;lon;timestamp;pressure;altitude;pressure_sealevel;temperature;humidity
50933;BME280;36921;49.006;9.292;2023-05-01T00:00:01;98749.78;;;8.20;100.00
50933;BME280;36921;49.006;9.292;2023-05-01T00:02:28;98748.56;;;8.08;100.00
50933;BME280;36921;49.006;9.292;2023-05-01T00:04:55;98752.31;;;7.92;100.00
50933;BME280;36921;49.006;9.292;2023-05-01T00:07:20;98745.28;;;7.76;100.00
50933;BME280;36921;49.006;9.292;2023-05-01T00:09:45;98758.25;;;7.73;100.00
50933;BME280;36921;49.006;9.292;2023-05-01T00:12:11;98735.72;;;7.59;100.00
50933;BME280;36921;49.006;9.292;2023-05-01T00:14:36;98744.00;;;7.57;100.00
50933;BME280;36921;49.006;9.292;2023-05-01T00:17:01;98739.06;;;7.61;100.00
50933;BME280;36921;49.006;9.292;2023-05-01T00:19:27;98738.13;;;7.68;100.00
50933;BME280;36921;49.006;9.292;2023-05-01T00:21:52;98732.34;;;7.72;100.00
50933;BME280;36921;49.006;9.292;2023-05-01T00:24:17;98734.59;;;7.68;100.00
50933;BME280;36921;49.006;9.292;2023-05-01T00:26:43;98730.50;;;7.72;100.00
50933;BME280;36921;49.006;9.292;2023-05-01T00:29:09;98735.50;;;7.75;100.00
50933;BME280;36921;49.006;9.292;2023-05-01T00:31:34;98728.63;;;7.73;100.00
50933;BME280;36921;49.006;9.292;2023-05-01T00:34:00;98716.09;;;7.65;100.00
50933;BME280;36921;49.006;9.292;2023-05-01T00:36:26;98721.75;;;7.70;100.00
50933;BME280;36921;49.006;9.292;2023-05-01T00:38:51;98713.34;;;7.58;100.00
50933;BME280;36921;49.006;9.292;2023-05-01T00:41:16;98702.84;;;7.49;100.00
50933;BME280;36921;49.006;9.292;2023-05-01T00:43:42;98721.78;;;7.55;100.00
50933;BME280;36921;49.006;9.292;2023-05-01T00:46:07;98715.28;;;7.50;100.00
50933;BME280;36921;49.006;9.292;2023-05-01T00:48:34;98712.88;;;7.40;100.00
50933;BME280;36921;49.006;9.292;2023-05-01T00:51:00;98708.25;;;7.34;100.00
50933;BME280;36921;49.006;9.292;2023-05-01T00:53:29;98717.59;;;7.38;100.00
50933;BME280;36921;49.006;9.292;2023-05-01T00:55:55;98715.28;;;7.35;100.00
50933;BME280;36921;49.006;9.292;2023-05-01T00:58:22;98705.56;;;7.34;100.00
50933;BME280;36921;49.006;9.292;2023-05-01T01:00:48;98697.53;;;7.25;100.00
50933;BME280;36921;49.006;9.292;2023-05-01T01:03:13;98705.34;;;7.35;100.00
50933;BME280;36921;49.006;9.292;2023-05-01T01:05:42;98708.78;;;7.44;100.00
50933;BME280;36921;49.006;9.292;2023-05-01T01:08:28;98685.69;;;7.35;100.00
50933;BME280;36921;49.006;9.292;2023-05-01T01:11:11;98699.41;;;7.40;100.00
50933;BME280;36921;49.006;9.292;2023-05-01T01:13:45;98694.03;;;7.40;100.00
50933;BME280;36921;49.006;9.292;2023-05-01T01:16:20;98696.44;;;7.50;100.00
50933;BME280;36921;49.006;9.292;2023-05-01T01:18:48;98693.66;;;7.58;100.00
50933;BME280;36921;49.006;9.292;2023-05-01T01:21:27;98690.41;;;7.62;100.00
50933;BME280;36921;49.006;9.292;2023-05-01T01:24:02;98685.28;;;7.67;100.00
50933;BME280;36921;49.006;9.292;2023-05-01T01:26:51;98680.75;;;7.68;100.00
50933;BME280;36921;49.006;9.292;2023-05-01T01:35:17;98682.97;;;7.64;100.00
50933;BME280;36921;49.006;9.292;2023-05-01T01:38:13;98672.56;;;7.61;100.00
50933;BME280;36921;49.006;9.292;2023-05-01T01:40:56;98671.03;;;7.52;100.00
50933;BME280;36921;49.006;9.292;2023-05-01T01:43:23;98662.28;;;7.50;100.00
50933;BME280;36921;49.006;9.292;2023-05-01T01:45:55;98674.81;;;7.58;100.00
50933;BME280;36921;49.006;9.292;2023-05-01T01:48:25;98677.31;;;7.59;100.00
50933;BME280;36921;49.006;9.292;2023-05-01T01:50:52;98681.47;;;7.62;100.00
50933;BME280;36921;49.006;9.292;2023-05-01T01:53:19;98668.94;;;7.54;100.00
50933;BME280;36921;49.006;9.292;2023-05-01T01:55:47;98659.31;;;7.45;100.00
50933;BME280;36921;49.006;9.292;2023-05-01T01:58:14;98675.09;;;7.48;100.00
50933;BME280;36921;49.006;9.292;2023-05-01T02:00:43;98670.16;;;7.52;100.00
50933;BME280;36921;49.006;9.292;2023-05-01T02:03:09;98667.13;;;7.40;100.00
50933;BME280;36921;49.006;9.292;2023-05-01T02:05:38;98679.81;;;7.46;100.00
50933;BME280;36921;49.006;9.292;2023-05-01T02:08:05;98659.97;;;7.32;100.00
50933;BME280;36921;49.006;9.292;2023-05-01T02:10:31;98677.97;;;7.32;100.00
50933;BME280;36921;49.006;9.292;2023-05-01T02:12:57;98664.91;;;7.29;100.00
50933;BME280;36921;49.006;9.292;2023-05-01T02:15:24;98669.16;;;7.23;100.00
50933;BME280;36921;49.006;9.292;2023-05-01T02:17:51;98663.50;;;7.33;100.00
50933;BME280;36921;49.006;9.292;2023-05-01T02:20:17;98655.91;;;7.21;100.00
50933;BME280;36921;49.006;9.292;2023-05-01T02:22:43;98650.59;;;7.28;100.00
50933;BME280;36921;49.006;9.292;2023-05-01T02:25:11;98655.41;;;7.33;100.00
50933;BME280;36921;49.006;9.292;2023-05-01T02:27:40;98663.69;;;7.31;100.00
50933;BME280;36921;49.006;9.292;2023-05-01T02:30:08;98647.44;;;7.39;100.00
50933;BME280;36921;49.006;9.292;2023-05-01T02:32:33;98657.09;;;7.34;100.00
50933;BME280;36921;49.006;9.292;2023-05-01T02:34:59;98653.28;;;7.28;100.00
50933;BME280;36921;49.006;9.292;2023-05-01T02:37:25;98644.94;;;7.38;100.00
50933;BME280;36921;49.006;9.292;2023-05-01T02:39:52;98647.25;;;7.41;100.00
50933;BME280;36921;49.006;9.292;2023-05-01T02:42:19;98651.63;;;7.42;100.00
50933;BME280;36921;49.006;9.292;2023-05-01T02:44:50;98655.59;;;7.46;100.00
50933;BME280;36921;49.006;9.292;2023-05-01T02:47:19;98647.25;;;7.41;100.00
50933;BME280;36921;49.006;9.292;2023-05-01T02:49:47;98638.91;;;7.36;100.00
50933;BME280;36921;49.006;9.292;2023-05-01T02:52:14;98635.59;;;7.34;100.00
50933;BME280;36921;49.006;9.292;2023-05-01T02:54:41;98629.06;;;7.28;100.00
50933;BME280;36921;49.006;9.292;2023-05-01T02:57:09;98627.50;;;7.34;100.00
50933;BME280;36921;49.006;9.292;2023-05-01T02:59:35;98609.56;;;7.41;100.00
50933;BME280;36921;49.006;9.292;2023-05-01T03:02:00;98616.53;;;7.50;100.00
50933;BME280;36921;49.006;9.292;2023-05-01T03:04:26;98622.34;;;7.54;100.00
50933;BME280;36921;49.006;9.292;2023-05-01T03:06:52;98620.31;;;7.56;100.00
50933;BME280;36921;49.006;9.292;2023-05-01T03:09:18;98611.41;;;7.55;100.00
50933;BME280;36921;49.006;9.292;2023-05-01T03:11:43;98611.78;;;7.52;100.00
50933;BME280;36921;49.006;9.292;2023-05-01T03:14:09;98628.84;;;7.59;100.00
50933;BME280;36921;49.006;9.292;2023-05-01T03:16:35;98631.25;;;7.54;100.00
50933;BME280;36921;49.006;9.292;2023-05-01T03:19:00;98627.94;;;7.52;100.00
50933;BME280;36921;49.006;9.292;2023-05-01T03:21:26;98598.25;;;7.31;100.00
50933;BME280;36921;49.006;9.292;2023-05-01T03:23:51;98616.09;;;7.32;100.00
50933;BME280;36921;49.006;9.292;2023-05-01T03:26:16;98612.84;;;7.36;100.00
50933;BME280;36921;49.006;9.292;2023-05-01T03:28:41;98604.78;;;7.36;100.00
50933;BME280;36921;49.006;9.292;2023-05-01T03:31:07;98625.81;;;7.47;100.00
50933;BME280;36921;49.006;9.292;2023-05-01T03:33:32;98595.75;;;7.29;100.00
50933;BME280;36921;49.006;9.292;2023-05-01T03:36:01;98618.50;;;7.41;100.00
50933;BME280;36921;49.006;9.292;2023-05-01T03:38:27;98601.22;;;7.36;100.00
50933;BME280;36921;49.006;9.292;2023-05-01T03:40:53;98601.50;;;7.41;100.00
50933;BME280;36921;49.006;9.292;2023-05-01T03:43:18;98597.59;;;7.43;100.00
50933;BME280;36921;49.006;9.292;2023-05-01T03:45:43;98591.38;;;7.43;100.00
50933;BME280;36921;49.006;9.292;2023-05-01T03:48:09;98590.53;;;7.42;100.00
50933;BME280;36921;49.006;9.292;2023-05-01T03:50:34;98589.13;;;7.46;100.00
50933;BME280;36921;49.006;9.292;2023-05-01T03:52:59;98602.94;;;7.58;100.00
50933;BME280;36921;49.006;9.292;2023-05-01T03:55:24;98577.16;;;7.49;100.00
50933;BME280;36921;49.006;9.292;2023-05-01T03:57:50;98576.84;;;7.59;100.00
50933;BME280;36921;49.006;9.292;2023-05-01T04:00:16;98560.38;;;7.47;100.00
50933;BME280;36921;49.006;9.292;2023-05-01T04:02:42;98597.53;;;7.73;100.00
50933;BME280;36921;49.006;9.292;2023-05-01T04:05:07;98585.09;;;7.72;100.00
50933;BME280;36921;49.006;9.292;2023-05-01T04:07:33;98578.56;;;7.81;100.00
50933;BME280;36921;49.006;9.292;2023-05-01T04:09:58;98595.38;;;7.83;100.00
50933;BME280;36921;49.006;9.292;2023-05-01T04:12:23;98578.09;;;7.78;100.00
50933;BME280;36921;49.006;9.292;2023-05-01T04:14:49;98599.41;;;7.94;100.00
50933;BME280;36921;49.006;9.292;2023-05-01T04:17:14;98575.50;;;7.84;100.00
50933;BME280;36921;49.006;9.292;2023-05-01T04:19:39;98577.22;;;7.92;100.00
50933;BME280;36921;49.006;9.292;2023-05-01T04:22:05;98600.78;;;8.05;100.00
50933;BME280;36921;49.006;9.292;2023-05-01T04:24:30;98579.09;;;7.92;100.00
50933;BME280;36921;49.006;9.292;2023-05-01T04:26:56;98599.56;;;8.07;100.00
50933;BME280;36921;49.006;9.292;2023-05-01T04:29:22;98578.38;;;8.04;100.00
50933;BME280;36921;49.006;9.292;2023-05-01T04:31:48;98602.50;;;8.12;100.00
50933;BME280;36921;49.006;9.292;2023-05-01T04:34:13;98579.22;;;8.05;100.00
50933;BME280;36921;49.006;9.292;2023-05-01T04:36:39;98564.00;;;7.97;100.00
50933;BME280;36921;49.006;9.292;2023-05-01T04:39:04;98582.22;;;8.17;100.00
50933;BME280;36921;49.006;9.292;2023-05-01T04:41:30;98596.63;;;8.30;100.00
50933;BME280;36921;49.006;9.292;2023-05-01T04:43:55;98581.00;;;8.19;100.00
50933;BME280;36921;49.006;9.292;2023-05-01T04:46:21;98586.84;;;8.23;100.00
50933;BME280;36921;49.006;9.292;2023-05-01T04:48:46;98554.88;;;8.20;100.00
50933;BME280;36921;49.006;9.292;2023-05-01T04:51:11;98575.31;;;8.35;100.00
50933;BME280;36921;49.006;9.292;2023-05-01T04:53:37;98568.16;;;8.43;100.00
50933;BME280;36921;49.006;9.292;2023-05-01T04:56:02;98575.78;;;8.61;100.00
50933;BME280;36921;49.006;9.292;2023-05-01T04:58:28;98575.06;;;8.80;100.00
50933;BME280;36921;49.006;9.292;2023-05-01T05:00:53;98571.13;;;8.83;100.00
50933;BME280;36921;49.006;9.292;2023-05-01T05:03:18;98567.44;;;8.90;100.00
50933;BME280;36921;49.006;9.292;2023-05-01T05:05:44;98581.81;;;8.91;100.00
50933;BME280;36921;49.006;9.292;2023-05-01T05:08:12;98563.13;;;8.96;100.00
50933;BME280;36921;49.006;9.292;2023-05-01T05:10:37;98558.81;;;9.02;100.00
50933;BME280;36921;49.006;9.292;2023-05-01T05:13:03;98571.31;;;9.09;100.00
50933;BME280;36921;49.006;9.292;2023-05-01T05:15:28;98564.47;;;9.07;100.00
50933;BME280;36921;49.006;9.292;2023-05-01T05:17:53;98566.97;;;9.15;100.00
50933;BME280;36921;49.006;9.292;2023-05-01T05:20:19;98580.19;;;9.44;100.00
50933;BME280;36921;49.006;9.292;2023-05-01T05:22:44;98538.59;;;9.32;100.00
50933;BME280;36921;49.006;9.292;2023-05-01T05:25:09;98546.13;;;9.43;100.00
50933;BME280;36921;49.006;9.292;2023-05-01T05:27:34;98571.34;;;9.71;100.00
50933;BME280;36921;49.006;9.292;2023-05-01T05:30:03;98546.44;;;9.75;100.00
50933;BME280;36921;49.006;9.292;2023-05-01T05:32:28;98547.66;;;9.79;100.00
50933;BME280;36921;49.006;9.292;2023-05-01T05:34:55;98550.03;;;10.09;100.00
50933;BME280;36921;49.006;9.292;2023-05-01T05:37:20;98545.47;;;10.29;100.00
50933;BME280;36921;49.006;9.292;2023-05-01T05:39:45;98525.31;;;10.45;100.00
50933;BME280;36921;49.006;9.292;2023-05-01T05:42:10;98543.34;;;10.78;100.00
50933;BME280;36921;49.006;9.292;2023-05-01T05:44:36;98536.84;;;10.99;100.00
50933;BME280;36921;49.006;9.292;2023-05-01T05:47:03;98549.72;;;11.10;100.00
50933;BME280;36921;49.006;9.292;2023-05-01T05:49:28;98515.63;;;10.96;100.00
50933;BME280;36921;49.006;9.292;2023-05-01T05:51:54;98552.38;;;11.24;100.00
50933;BME280;36921;49.006;9.292;2023-05-01T05:54:20;98556.34;;;11.34;100.00
50933;BME280;36921;49.006;9.292;2023-05-01T05:56:45;98543.25;;;11.25;100.00
50933;BME280;36921;49.006;9.292;2023-05-01T05:59:10;98549.63;;;11.37;100.00
50933;BME280;36921;49.006;9.292;2023-05-01T06:01:36;98561.72;;;11.41;100.00
50933;BME280;36921;49.006;9.292;2023-05-01T06:04:05;98556.28;;;11.48;100.00
50933;BME280;36921;49.006;9.292;2023-05-01T06:06:40;98519.69;;;11.18;100.00
50933;BME280;36921;49.006;9.292;2023-05-01T06:09:06;98558.13;;;11.47;100.00
50933;BME280;36921;49.006;9.292;2023-05-01T06:11:32;98556.72;;;11.31;100.00
50933;BME280;36921;49.006;9.292;2023-05-01T06:13:58;98548.91;;;11.16;100.00
50933;BME280;36921;49.006;9.292;2023-05-01T06:16:24;98565.09;;;11.23;100.00
50933;BME280;36921;49.006;9.292;2023-05-01T06:18:49;98540.78;;;11.10;100.00
50933;BME280;36921;49.006;9.292;2023-05-01T06:21:15;98566.78;;;11.17;100.00
50933;BME280;36921;49.006;9.292;2023-05-01T06:23:40;98560.56;;;11.10;100.00
50933;BME280;36921;49.006;9.292;2023-05-01T06:26:05;98561.97;;;11.26;100.00
50933;BME280;36921;49.006;9.292;2023-05-01T06:28:32;98546.78;;;11.25;100.00
50933;BME280;36921;49.006;9.292;2023-05-01T06:30:57;98561.91;;;11.46;100.00
50933;BME280;36921;49.006;9.292;2023-05-01T06:33:22;98563.91;;;11.57;100.00
50933;BME280;36921;49.006;9.292;2023-05-01T06:35:48;98547.91;;;11.56;100.00
50933;BME280;36921;49.006;9.292;2023-05-01T06:38:13;98568.06;;;11.67;100.00
50933;BME280;36921;49.006;9.292;2023-05-01T06:40:38;98553.16;;;11.82;100.00
50933;BME280;36921;49.006;9.292;2023-05-01T06:43:04;98553.44;;;11.74;100.00
50933;BME280;36921;49.006;9.292;2023-05-01T06:45:30;98554.00;;;11.90;100.00
50933;BME280;36921;49.006;9.292;2023-05-01T06:47:56;98560.97;;;12.11;100.00
50933;BME280;36921;49.006;9.292;2023-05-01T06:50:21;98568.81;;;12.19;100.00
50933;BME280;36921;49.006;9.292;2023-05-01T06:52:46;98575.75;;;12.40;100.00
50933;BME280;36921;49.006;9.292;2023-05-01T06:55:11;98546.84;;;12.52;100.00
50933;BME280;36921;49.006;9.292;2023-05-01T06:57:37;98541.03;;;12.48;100.00
50933;BME280;36921;49.006;9.292;2023-05-01T07:00:04;98577.06;;;12.81;100.00
50933;BME280;36921;49.006;9.292;2023-05-01T07:02:30;98577.16;;;12.92;100.00
50933;BME280;36921;49.006;9.292;2023-05-01T07:04:55;98573.88;;;13.09;100.00
50933;BME280;36921;49.006;9.292;2023-05-01T07:07:20;98567.66;;;13.20;100.00
50933;BME280;36921;49.006;9.292;2023-05-01T07:09:46;98583.56;;;13.23;100.00
50933;BME280;36921;49.006;9.292;2023-05-01T07:12:12;98575.66;;;13.15;100.00
50933;BME280;36921;49.006;9.292;2023-05-01T07:14:37;98588.94;;;13.30;100.00
50933;BME280;36921;49.006;9.292;2023-05-01T07:17:02;98574.66;;;13.34;100.00
50933;BME280;36921;49.006;9.292;2023-05-01T07:19:28;98594.88;;;13.57;100.00
50933;BME280;36921;49.006;9.292;2023-05-01T07:21:53;98584.13;;;13.62;100.00
50933;BME280;36921;49.006;9.292;2023-05-01T07:24:18;98583.06;;;13.81;100.00
50933;BME280;36921;49.006;9.292;2023-05-01T07:26:45;98582.94;;;13.58;100.00
50933;BME280;36921;49.006;9.292;2023-05-01T07:29:10;98581.56;;;13.67;100.00
50933;BME280;36921;49.006;9.292;2023-05-01T07:31:37;98575.84;;;13.75;100.00
50933;BME280;36921;49.006;9.292;2023-05-01T07:34:03;98566.16;;;13.79;100.00
50933;BME280;36921;49.006;9.292;2023-05-01T07:36:28;98585.69;;;14.18;100.00
50933;BME280;36921;49.006;9.292;2023-05-01T07:38:54;98580.13;;;14.55;100.00
50933;BME280;36921;49.006;9.292;2023-05-01T07:41:21;98560.84;;;14.68;100.00
50933;BME280;36921;49.006;9.292;2023-05-01T07:43:48;98567.72;;;14.71;100.00
50933;BME280;36921;49.006;9.292;2023-05-01T07:46:14;98572.50;;;14.03;100.00
50933;BME280;36921;49.006;9.292;2023-05-01T07:48:39;98552.69;;;13.85;100.00
50933;BME280;36921;49.006;9.292;2023-05-01T07:51:05;98552.50;;;13.98;100.00
50933;BME280;36921;49.006;9.292;2023-05-01T07:53:30;98557.38;;;13.77;100.00
50933;BME280;36921;49.006;9.292;2023-05-01T07:56:06;98582.22;;;14.11;100.00
50933;BME280;36921;49.006;9.292;2023-05-01T07:58:32;98562.91;;;14.01;100.00
50933;BME280;36921;49.006;9.292;2023-05-01T08:00:59;98564.84;;;13.82;100.00
50933;BME280;36921;49.006;9.292;2023-05-01T08:03:26;98577.38;;;13.83;100.00
50933;BME280;36921;49.006;9.292;2023-05-01T08:05:52;98586.84;;;13.80;100.00
50933;BME280;36921;49.006;9.292;2023-05-01T08:08:17;98580.03;;;13.90;100.00
50933;BME280;36921;49.006;9.292;2023-05-01T08:10:45;98576.09;;;13.86;100.00
50933;BME280;36921;49.006;9.292;2023-05-01T08:13:11;98559.34;;;13.89;100.00
50933;BME280;36921;49.006;9.292;2023-05-01T08:15:36;98565.78;;;14.06;100.00
50933;BME280;36921;49.006;9.292;2023-05-01T08:18:03;98570.44;;;14.17;100.00
50933;BME280;36921;49.006;9.292;2023-05-01T08:20:29;98579.09;;;14.38;100.00
50933;BME280;36921;49.006;9.292;2023-05-01T08:22:54;98559.84;;;14.09;100.00
50933;BME280;36921;49.006;9.292;2023-05-01T08:25:20;98568.28;;;14.08;100.00
50933;BME280;36921;49.006;9.292;2023-05-01T08:27:45;98567.00;;;14.22;100.00
50933;BME280;36921;49.006;9.292;2023-05-01T08:30:10;98561.25;;;14.00;100.00
50933;BME280;36921;49.006;9.292;2023-05-01T08:32:36;98560.53;;;13.93;100.00
50933;BME280;36921;49.006;9.292;2023-05-01T08:35:01;98550.91;;;13.78;100.00
50933;BME280;36921;49.006;9.292;2023-05-01T08:37:26;98566.03;;;14.16;100.00
50933;BME280;36921;49.006;9.292;2023-05-01T08:39:53;98549.97;;;14.27;100.00
50933;BME280;36921;49.006;9.292;2023-05-01T08:42:18;98552.13;;;14.36;100.00
50933;BME280;36921;49.006;9.292;2023-05-01T08:44:45;98562.81;;;14.50;100.00
50933;BME280;36921;49.006;9.292;2023-05-01T08:47:16;98559.34;;;14.31;100.00
50933;BME280;36921;49.006;9.292;2023-05-01T08:49:43;98567.28;;;14.44;100.00
50933;BME280;36921;49.006;9.292;2023-05-01T08:52:13;98552.41;;;14.58;100.00
50933;BME280;36921;49.006;9.292;2023-05-01T08:54:41;98576.25;;;14.86;100.00
50933;BME280;36921;49.006;9.292;2023-05-01T08:57:08;98560.25;;;15.02;100.00
50933;BME280;36921;49.006;9.292;2023-05-01T08:59:35;98565.94;;;15.12;100.00
50933;BME280;36921;49.006;9.292;2023-05-01T09:02:02;98569.34;;;15.31;100.00
50933;BME280;36921;49.006;9.292;2023-05-01T09:04:32;98567.59;;;15.65;100.00
50933;BME280;36921;49.006;9.292;2023-05-01T09:06:59;98555.44;;;15.32;100.00
50933;BME280;36921;49.006;9.292;2023-05-01T09:09:26;98559.78;;;15.69;100.00
50933;BME280;36921;49.006;9.292;2023-05-01T09:12:11;98556.63;;;15.48;100.00
50933;BME280;36921;49.006;9.292;2023-05-01T09:14:39;98565.59;;;15.72;100.00
50933;BME280;36921;49.006;9.292;2023-05-01T09:17:05;98570.47;;;16.16;100.00
50933;BME280;36921;49.006;9.292;2023-05-01T09:19:30;98573.44;;;16.60;100.00
50933;BME280;36921;49.006;9.292;2023-05-01T09:21:55;98568.53;;;17.13;95.50
50933;BME280;36921;49.006;9.292;2023-05-01T09:24:24;98576.69;;;16.91;95.54
50933;BME280;36921;49.006;9.292;2023-05-01T09:26:50;98577.19;;;17.26;90.30
50933;BME280;36921;49.006;9.292;2023-05-01T09:29:44;98581.34;;;17.73;89.84
50933;BME280;36921;49.006;9.292;2023-05-01T09:32:18;98577.31;;;17.37;89.07
50933;BME280;36921;49.006;9.292;2023-05-01T09:34:47;98575.75;;;18.07;89.63
50933;BME280;36921;49.006;9.292;2023-05-01T09:37:33;98589.41;;;18.61;81.64
50933;BME280;36921;49.006;9.292;2023-05-01T09:42:31;98579.16;;;20.62;70.14
50933;BME280;36921;49.006;9.292;2023-05-01T09:45:01;98570.34;;;20.55;68.71
50933;BME280;36921;49.006;9.292;2023-05-01T09:47:28;98562.25;;;21.40;64.55
50933;BME280;36921;49.006;9.292;2023-05-01T09:49:57;98569.66;;;21.50;66.01
50933;BME280;36921;49.006;9.292;2023-05-01T09:52:28;98567.16;;;22.14;60.87
50933;BME280;36921;49.006;9.292;2023-05-01T09:55:16;98568.78;;;21.70;60.68
50933;BME280;36921;49.006;9.292;2023-05-01T09:57:42;98568.09;;;20.26;64.94
50933;BME280;36921;49.006;9.292;2023-05-01T10:00:13;98555.44;;;20.15;68.62
50933;BME280;36921;49.006;9.292;2023-05-01T10:02:41;98563.41;;;20.27;70.33
50933;BME280;36921;49.006;9.292;2023-05-01T10:05:08;98554.41;;;20.72;67.33
50933;BME280;36921;49.006;9.292;2023-05-01T10:07:34;98555.22;;;20.83;63.87
50933;BME280;36921;49.006;9.292;2023-05-01T10:10:19;98561.50;;;22.39;64.33
50933;BME280;36921;49.006;9.292;2023-05-01T10:12:46;98543.75;;;23.43;60.28
50933;BME280;36921;49.006;9.292;2023-05-01T10:15:11;98551.91;;;23.53;59.11
50933;BME280;36921;49.006;9.292;2023-05-01T10:17:38;98553.31;;;25.63;55.16
50933;BME280;36921;49.006;9.292;2023-05-01T10:20:10;98555.78;;;25.92;53.13
50933;BME280;36921;49.006;9.292;2023-05-01T10:22:37;98549.34;;;25.08;51.83
50933;BME280;36921;49.006;9.292;2023-05-01T10:25:05;98558.47;;;23.57;55.34
50933;BME280;36921;49.006;9.292;2023-05-01T10:27:31;98555.38;;;24.07;55.69
50933;BME280;36921;49.006;9.292;2023-05-01T10:30:01;98551.44;;;24.13;53.73
50933;BME280;36921;49.006;9.292;2023-05-01T10:32:29;98550.69;;;24.78;55.15
50933;BME280;36921;49.006;9.292;2023-05-01T10:34:59;98560.69;;;25.53;53.01
50933;BME280;36921;49.006;9.292;2023-05-01T10:37:34;98559.88;;;25.53;49.42
50933;BME280;36921;49.006;9.292;2023-05-01T10:45:42;98554.59;;;26.07;50.56
50933;BME280;36921;49.006;9.292;2023-05-01T10:48:07;98551.94;;;26.01;48.85
50933;BME280;36921;49.006;9.292;2023-05-01T10:50:33;98547.25;;;26.38;47.57
50933;BME280;36921;49.006;9.292;2023-05-01T10:58:01;98544.84;;;24.47;50.48
50933;BME280;36921;49.006;9.292;2023-05-01T11:00:28;98543.44;;;24.12;52.30
50933;BME280;36921;49.006;9.292;2023-05-01T11:08:35;98540.44;;;22.19;56.02
50933;BME280;36921;49.006;9.292;2023-05-01T11:14:04;98538.28;;;23.38;55.78
50933;BME280;36921;49.006;9.292;2023-05-01T11:19:55;98533.34;;;23.11;57.01
50933;BME280;36921;49.006;9.292;2023-05-01T11:21:57;98529.31;;;23.27;56.69
50933;BME280;36921;49.006;9.292;2023-05-01T11:24:30;98527.97;;;24.30;54.84
50933;BME280;36921;49.006;9.292;2023-05-01T11:26:57;98528.84;;;25.09;54.10
50933;BME280;36921;49.006;9.292;2023-05-01T11:29:29;98511.56;;;25.45;52.77
50933;BME280;36921;49.006;9.292;2023-05-01T11:31:55;98515.31;;;25.77;51.36
50933;BME280;36921;49.006;9.292;2023-05-01T11:34:21;98515.19;;;26.32;51.75
50933;BME280;36921;49.006;9.292;2023-05-01T11:36:50;98515.22;;;26.77;50.10
50933;BME280;36921;49.006;9.292;2023-05-01T11:39:17;98525.06;;;27.15;47.83
50933;BME280;36921;49.006;9.292;2023-05-01T11:41:42;98526.28;;;26.32;48.04
50933;BME280;36921;49.006;9.292;2023-05-01T11:44:10;98514.09;;;26.19;47.89
50933;BME280;36921;49.006;9.292;2023-05-01T11:46:36;98522.47;;;24.95;50.03
50933;BME280;36921;49.006;9.292;2023-05-01T11:49:02;98504.53;;;24.60;51.71
50933;BME280;36921;49.006;9.292;2023-05-01T11:51:28;98510.97;;;25.02;51.83
50933;BME280;36921;49.006;9.292;2023-05-01T11:54:05;98510.28;;;25.79;50.34
50933;BME280;36921;49.006;9.292;2023-05-01T11:56:32;98520.75;;;25.82;49.48
50933;BME280;36921;49.006;9.292;2023-05-01T11:59:00;98521.59;;;27.09;47.33
50933;BME280;36921;49.006;9.292;2023-05-01T12:01:37;98509.63;;;26.69;47.00
50933;BME280;36921;49.006;9.292;2023-05-01T12:04:04;98511.69;;;26.85;47.67
50933;BME280;36921;49.006;9.292;2023-05-01T12:06:39;98518.84;;;26.55;46.83
50933;BME280;36921;49.006;9.292;2023-05-01T12:09:09;98513.28;;;25.96;48.96
50933;BME280;36921;49.006;9.292;2023-05-01T12:11:35;98513.31;;;25.55;49.79
50933;BME280;36921;49.006;9.292;2023-05-01T12:14:01;98502.72;;;25.57;49.34
50933;BME280;36921;49.006;9.292;2023-05-01T12:16:28;98506.22;;;24.75;50.05
50933;BME280;36921;49.006;9.292;2023-05-01T12:18:54;98495.78;;;25.18;51.24
50933;BME280;36921;49.006;9.292;2023-05-01T12:21:19;98496.94;;;25.81;49.83
50933;BME280;36921;49.006;9.292;2023-05-01T12:23:45;98515.50;;;25.11;49.65
50933;BME280;36921;49.006;9.292;2023-05-01T12:26:15;98512.81;;;24.79;50.23
50933;BME280;36921;49.006;9.292;2023-05-01T12:28:55;98507.44;;;25.70;49.17
50933;BME280;36921;49.006;9.292;2023-05-01T12:31:21;98511.84;;;25.85;47.83
50933;BME280;36921;49.006;9.292;2023-05-01T12:34:04;98512.25;;;25.92;48.49
50933;BME280;36921;49.006;9.292;2023-05-01T12:36:31;98502.88;;;26.61;46.59
50933;BME280;36921;49.006;9.292;2023-05-01T12:39:05;98496.59;;;27.09;45.75
50933;BME280;36921;49.006;9.292;2023-05-01T12:41:42;98499.66;;;27.30;44.46
50933;BME280;36921;49.006;9.292;2023-05-01T12:44:21;98488.81;;;27.77;43.80
50933;BME280;36921;49.006;9.292;2023-05-01T12:46:54;98500.44;;;29.01;42.78
50933;BME280;36921;49.006;9.292;2023-05-01T12:49:21;98493.00;;;29.52;39.42
50933;BME280;36921;49.006;9.292;2023-05-01T12:51:48;98496.16;;;29.51;41.89
50933;BME280;36921;49.006;9.292;2023-05-01T12:54:20;98487.91;;;28.34;42.71
50933;BME280;36921;49.006;9.292;2023-05-01T12:56:46;98493.50;;;27.42;43.10
50933;BME280;36921;49.006;9.292;2023-05-01T12:59:21;98490.91;;;26.52;44.79
50933;BME280;36921;49.006;9.292;2023-05-01T13:01:48;98491.81;;;26.24;45.54
50933;BME280;36921;49.006;9.292;2023-05-01T13:04:23;98483.69;;;26.28;45.68
50933;BME280;36921;49.006;9.292;2023-05-01T13:06:48;98494.28;;;26.71;46.51
50933;BME280;36921;49.006;9.292;2023-05-01T13:09:13;98483.94;;;26.85;45.26
50933;BME280;36921;49.006;9.292;2023-05-01T13:11:41;98491.16;;;28.71;43.67
50933;BME280;36921;49.006;9.292;2023-05-01T13:14:07;98491.97;;;28.71;42.84
50933;BME280;36921;49.006;9.292;2023-05-01T13:16:33;98490.69;;;27.99;42.68
50933;BME280;36921;49.006;9.292;2023-05-01T13:18:58;98486.28;;;28.15;43.56
50933;BME280;36921;49.006;9.292;2023-05-01T13:21:24;98483.34;;;28.21;43.40
50933;BME280;36921;49.006;9.292;2023-05-01T13:23:56;98482.44;;;27.76;43.82
50933;BME280;36921;49.006;9.292;2023-05-01T13:26:29;98475.81;;;28.04;43.43
50933;BME280;36921;49.006;9.292;2023-05-01T13:28:59;98479.09;;;28.23;43.12